createdAt,value
2022-10-31T09:09:49.298Z,13.55
2022-10-31T09:14:51.678Z,13.46
2022-10-31T09:20:03.216Z,13.58
2022-10-31T09:25:06.917Z,13.96
2022-10-31T09:30:08.757Z,14.07
2022-10-31T09:35:09.969Z,13.97
2022-10-31T09:40:11.051Z,14.03
2022-10-31T09:45:23.711Z,14.06
2022-10-31T09:52:33.496Z,14.16
2022-10-31T09:57:41.547Z,14.15
2022-10-31T10:06:12.011Z,14.27
2022-10-31T10:15:11.398Z,14.03
2022-10-31T10:20:49.643Z,14.32
2022-10-31T10:26:13.265Z,14.36
2022-10-31T10:31:18.809Z,14.37
2022-10-31T10:36:32.126Z,14.48
2022-10-31T10:41:34.679Z,14.38
2022-10-31T10:47:02.102Z,14.40
2022-10-31T10:55:03.267Z,14.24
2022-10-31T11:00:24.432Z,14.14
2022-10-31T11:06:26.302Z,14.20
2022-10-31T11:11:30.880Z,14.31
2022-10-31T11:16:41.744Z,14.27
2022-10-31T11:21:49.830Z,14.32
2022-10-31T11:27:13.572Z,14.26
2022-10-31T11:32:26.571Z,14.42
2022-10-31T11:37:32.212Z,14.49
2022-10-31T11:42:41.771Z,14.42
2022-10-31T11:47:47.741Z,14.33
2022-10-31T11:52:49.686Z,14.65
2022-10-31T11:57:52.509Z,14.88
2022-10-31T12:03:21.519Z,15.04
2022-10-31T12:08:30.284Z,15.25
2022-10-31T12:13:35.810Z,15.49
2022-10-31T12:26:41.256Z,15.56
2022-10-31T12:34:47.750Z,15.89
2022-10-31T12:40:58.439Z,15.88
2022-10-31T12:46:01.208Z,15.65
2022-10-31T12:52:51.101Z,15.59
2022-10-31T12:57:58.897Z,15.61
2022-10-31T13:03:34.361Z,15.69
2022-10-31T13:08:52.727Z,15.56
2022-10-31T13:14:23.670Z,15.37
2022-10-31T13:19:42.805Z,15.10
2022-10-31T13:25:10.137Z,15.10
2022-10-31T13:30:21.082Z,15.20
2022-10-31T13:38:18.881Z,15.04
2022-10-31T13:44:00.096Z,14.80
2022-10-31T13:49:01.171Z,14.94
2022-10-31T13:54:19.962Z,14.97
2022-10-31T13:59:29.830Z,15.21
2022-10-31T14:04:56.293Z,15.27
2022-10-31T14:10:21.660Z,15.94
2022-10-31T14:15:25.964Z,17.42
2022-10-31T14:20:46.140Z,17.45
2022-10-31T14:25:46.913Z,17.24
2022-10-31T14:30:58.843Z,16.85
2022-10-31T14:36:19.993Z,16.28
2022-10-31T14:42:19.602Z,15.72
2022-10-31T14:50:34.985Z,15.65
2022-10-31T14:55:44.214Z,15.19
2022-10-31T15:00:45.138Z,15.07
2022-10-31T15:05:53.007Z,14.90
2022-10-31T15:10:53.722Z,14.78
2022-10-31T15:15:56.090Z,14.82
2022-10-31T15:20:57.142Z,14.65
2022-10-31T15:26:03.219Z,14.73
2022-10-31T15:31:04.227Z,14.62
2022-10-31T15:36:05.447Z,14.79
2022-10-31T15:41:31.233Z,14.82
2022-10-31T15:46:33.979Z,14.71
2022-10-31T15:51:35.181Z,14.34
2022-10-31T15:56:36.127Z,14.30
2022-10-31T16:01:37.078Z,14.21
2022-10-31T16:06:38.499Z,14.26
2022-10-31T16:11:39.752Z,14.19
2022-10-31T16:16:44.460Z,14.10
2022-10-31T16:21:48.208Z,14.10
2022-10-31T16:26:51.252Z,13.78
2022-10-31T16:31:52.024Z,13.57
2022-10-31T16:36:53.201Z,13.56
2022-10-31T16:41:56.271Z,13.49
2022-10-31T16:47:16.728Z,13.31
2022-10-31T16:52:18.021Z,12.96
2022-10-31T16:57:29.863Z,12.76
2022-10-31T17:02:30.651Z,12.65
2022-10-31T17:07:31.850Z,12.64
2022-10-31T17:12:32.890Z,12.42
2022-10-31T17:17:33.744Z,12.39
2022-10-31T17:22:34.472Z,12.50
2022-10-31T17:27:35.421Z,12.24
2022-10-31T17:32:36.144Z,12.16
2022-10-31T17:37:36.928Z,12.14
2022-10-31T17:42:37.843Z,12.06
2022-10-31T17:47:39.126Z,12.02
2022-10-31T17:52:39.859Z,11.78
2022-10-31T17:57:40.912Z,11.62
2022-10-31T18:02:41.785Z,11.70
2022-10-31T18:07:42.916Z,11.74
2022-10-31T18:12:43.671Z,11.76
2022-10-31T18:17:45.665Z,11.57
2022-10-31T18:22:46.405Z,11.44
2022-10-31T18:27:47.438Z,11.66
2022-10-31T18:32:50.453Z,11.61
2022-10-31T18:37:51.611Z,11.58
2022-10-31T18:42:52.325Z,11.43
2022-10-31T18:47:53.311Z,11.50
2022-10-31T18:52:54.326Z,11.51
2022-10-31T18:57:55.077Z,11.48
2022-10-31T19:02:56.657Z,11.41
2022-10-31T19:07:58.013Z,11.32
2022-10-31T19:12:59.974Z,11.58
2022-10-31T19:18:02.231Z,11.53
2022-10-31T19:23:03.430Z,11.47
2022-10-31T19:28:05.069Z,11.29
2022-10-31T19:33:06.458Z,11.31
2022-10-31T19:38:07.225Z,11.26
2022-10-31T19:43:08.170Z,11.06
2022-10-31T19:48:09.039Z,11.10
2022-10-31T19:53:09.961Z,11.12
2022-10-31T19:58:10.815Z,11.10
2022-10-31T20:03:11.622Z,10.96
2022-10-31T20:08:18.884Z,10.98
2022-10-31T20:13:19.649Z,10.99
2022-10-31T20:18:20.613Z,11.03
2022-10-31T20:23:21.562Z,11.03
2022-10-31T20:28:22.494Z,11.08
2022-10-31T20:33:23.224Z,11.18
2022-10-31T20:38:23.979Z,10.94
2022-10-31T20:43:24.740Z,11.09
2022-10-31T20:48:25.644Z,10.89
2022-10-31T20:53:26.987Z,10.79
2022-10-31T20:58:27.775Z,10.63
2022-10-31T21:03:28.777Z,10.85
2022-10-31T21:08:30.930Z,10.91
2022-10-31T21:13:40.316Z,10.95
2022-10-31T21:18:43.343Z,11.16
2022-10-31T21:23:44.745Z,11.19
2022-10-31T21:28:45.790Z,11.25
2022-10-31T21:33:46.778Z,11.32
2022-10-31T21:38:50.603Z,11.36
2022-10-31T21:43:55.702Z,11.33
2022-10-31T21:48:57.219Z,11.38
2022-10-31T21:54:16.128Z,11.35
2022-10-31T21:59:17.008Z,11.43
2022-10-31T22:04:18.703Z,11.57
2022-10-31T22:09:19.679Z,11.68
2022-10-31T22:14:20.529Z,11.80
2022-10-31T22:19:21.370Z,11.85
2022-10-31T22:24:22.173Z,11.93
2022-10-31T22:29:23.091Z,11.99
2022-10-31T22:34:23.801Z,11.96
2022-10-31T22:39:24.577Z,12.05
2022-10-31T22:44:25.286Z,12.12
2022-10-31T22:49:26.438Z,12.17
2022-10-31T22:54:27.202Z,12.25
2022-10-31T22:59:27.950Z,12.30
2022-10-31T23:04:28.704Z,12.23
2022-10-31T23:09:29.704Z,12.26
2022-10-31T23:14:30.609Z,12.21
2022-10-31T23:19:31.856Z,12.14
2022-10-31T23:24:38.643Z,12.21
2022-10-31T23:30:01.330Z,12.18
2022-10-31T23:35:06.135Z,12.28
2022-10-31T23:40:07.878Z,12.34
2022-10-31T23:45:08.739Z,12.22
2022-10-31T23:50:09.552Z,12.24
2022-10-31T23:55:10.293Z,12.20
